Time;durP1;ratioP1;P1;durP2;ratioP2;P2;SDS_P1;SDS_P2;PMS_P1;PMS_P2;Temp;Humidity;BMP_temperature;BMP_pressure;BME280_temperature;BME280_humidity;BME280_pressure;Samples;Min_cycle;Max_cycle;Signal;HPM_P1;HPM_P2
2022/03/26 00:01:08;;;;;;;12.38;8.13;;;3.60;99.90;3.20;97748.00;;;;4858710;28;92491;-69
2022/03/26 00:03:36;;;;;;;14.65;8.75;;;3.50;99.90;3.20;97744.00;;;;4865685;28;94428;-69
2022/03/26 00:06:05;;;;;;;15.98;8.45;;;3.50;99.90;3.10;97733.00;;;;4874297;28;92302;-68
2022/03/26 00:08:31;;;;;;;13.48;8.70;;;3.50;99.90;3.20;97717.00;;;;4869673;28;92098;-68
2022/03/26 00:10:57;;;;;;;14.63;7.97;;;3.60;99.90;3.20;97713.00;;;;4873098;28;91594;-68
2022/03/26 00:13:23;;;;;;;12.30;7.88;;;3.60;99.90;3.20;97712.00;;;;4869275;28;92621;-62
2022/03/26 00:15:49;;;;;;;13.55;8.60;;;3.60;99.90;3.20;97700.00;;;;4881255;28;92514;-62
2022/03/26 00:18:17;;;;;;;13.32;8.15;;;3.50;99.90;3.20;97685.00;;;;4868695;28;93028;-62
2022/03/26 00:20:45;;;;;;;13.82;8.55;;;3.50;99.90;3.20;97688.00;;;;4857260;28;92562;-62
2022/03/26 00:23:12;;;;;;;13.55;8.75;;;3.50;99.90;3.10;97690.00;;;;4875664;28;92471;-65
2022/03/26 00:25:38;;;;;;;14.13;8.23;;;3.50;99.90;3.10;97685.00;;;;4863176;28;93813;-65
2022/03/26 00:28:05;;;;;;;15.32;8.45;;;3.50;99.90;3.10;97678.00;;;;4873690;28;92523;-63
2022/03/26 00:30:34;;;;;;;13.15;7.97;;;3.50;99.90;3.20;97666.00;;;;4871781;28;92055;-64
2022/03/26 00:33:00;;;;;;;14.25;8.30;;;3.50;99.90;3.20;97653.00;;;;4872059;28;92607;-64
2022/03/26 00:35:27;;;;;;;18.25;8.25;;;3.50;99.90;3.20;97647.00;;;;4870694;28;93449;-64
2022/03/26 00:37:53;;;;;;;15.80;8.48;;;3.60;99.90;3.30;97651.00;;;;4871326;28;92362;-64
2022/03/26 00:40:19;;;;;;;11.30;7.93;;;3.60;99.90;3.30;97624.00;;;;4871885;28;92585;-64
2022/03/26 00:42:46;;;;;;;13.75;9.18;;;3.60;99.90;3.30;97611.00;;;;4855741;28;95121;-64
2022/03/26 00:45:13;;;;;;;12.82;8.27;;;3.70;99.90;3.40;97614.00;;;;4853819;28;93285;-64
2022/03/26 00:47:39;;;;;;;12.80;8.32;;;3.70;99.90;3.40;97613.00;;;;4873948;28;92071;-65
2022/03/26 00:50:06;;;;;;;12.00;8.48;;;3.70;99.90;3.40;97625.00;;;;4862979;29;92343;-64
2022/03/26 00:52:33;;;;;;;13.00;8.40;;;3.70;99.90;3.40;97607.00;;;;4874125;28;92566;-61
2022/03/26 00:54:59;;;;;;;10.48;7.97;;;3.70;99.90;3.40;97593.00;;;;4869194;28;92349;-61
2022/03/26 00:57:25;;;;;;;11.60;7.90;;;3.70;99.90;3.40;97587.00;;;;4842449;28;92739;-61
2022/03/26 00:59:51;;;;;;;11.88;8.30;;;3.70;99.90;3.30;97577.00;;;;4872247;28;91563;-60
2022/03/26 01:02:18;;;;;;;14.82;9.02;;;3.60;99.90;3.30;97578.00;;;;4870049;28;92681;-63
2022/03/26 01:04:44;;;;;;;14.98;8.57;;;3.60;99.90;3.20;97557.00;;;;4874317;28;92260;-61
2022/03/26 01:07:10;;;;;;;15.98;9.07;;;3.60;99.90;3.20;97547.00;;;;4875738;28;94203;-61
2022/03/26 01:09:36;;;;;;;11.93;8.13;;;3.50;99.90;3.20;97550.00;;;;4855088;28;92123;-61
2022/03/26 01:12:03;;;;;;;11.13;7.88;;;3.50;99.90;3.30;97542.00;;;;4860365;28;95904;-61
2022/03/26 01:14:29;;;;;;;12.13;8.45;;;3.60;99.90;3.40;97541.00;;;;4840908;28;92553;-61
2022/03/26 01:16:55;;;;;;;14.98;8.60;;;3.70;99.90;3.40;97535.00;;;;4872354;28;92084;-61
2022/03/26 01:19:21;;;;;;;12.18;8.48;;;3.70;99.90;3.50;97531.00;;;;4871237;28;92527;-61
2022/03/26 01:21:48;;;;;;;17.35;8.75;;;3.80;99.80;3.60;97519.00;;;;4855449;28;95551;-61
2022/03/26 01:24:14;;;;;;;14.02;8.10;;;3.80;99.60;3.60;97522.00;;;;4864520;28;94000;-60
2022/03/26 01:26:40;;;;;;;12.93;8.32;;;3.80;99.40;3.60;97512.00;;;;4880922;28;92060;-61
2022/03/26 01:29:09;;;;;;;12.43;8.05;;;3.80;99.40;3.50;97502.00;;;;4862027;28;92113;-61
2022/03/26 01:31:35;;;;;;;11.07;8.32;;;3.80;99.40;3.50;97495.00;;;;4876622;28;93597;-61
2022/03/26 01:34:02;;;;;;;13.60;8.68;;;3.80;99.40;3.50;97488.00;;;;4875237;28;94341;-62
2022/03/26 01:36:28;;;;;;;14.27;8.65;;;3.80;99.30;3.50;97482.00;;;;4852899;28;92117;-62
2022/03/26 01:38:55;;;;;;;11.48;8.40;;;3.80;99.20;3.50;97472.00;;;;4876985;28;92838;-61
2022/03/26 01:41:21;;;;;;;13.18;8.40;;;3.80;99.20;3.50;97474.00;;;;4876318;28;93969;-61
2022/03/26 01:43:47;;;;;;;15.32;8.32;;;3.70;99.20;3.40;97458.00;;;;4870868;28;93407;-62
2022/03/26 01:46:13;;;;;;;14.70;8.23;;;3.70;99.10;3.50;97456.00;;;;4867309;28;92310;-61
2022/03/26 01:48:40;;;;;;;13.60;7.95;;;3.80;99.00;3.50;97457.00;;;;4847633;29;91938;-60
2022/03/26 01:51:16;;;;;;;10.45;7.85;;;3.80;99.00;3.40;97444.00;;;;4845067;28;94316;-61
2022/03/26 01:53:52;;;;;;;10.77;7.97;;;3.70;99.00;3.40;97429.00;;;;4871385;28;92379;-61
2022/03/26 01:56:21;;;;;;;10.35;7.90;;;3.70;98.90;3.40;97424.00;;;;4871404;28;93023;-61
2022/03/26 01:58:47;;;;;;;10.68;7.72;;;3.70;98.80;3.40;97412.00;;;;4840736;29;92046;-61
2022/03/26 02:01:13;;;;;;;12.07;8.10;;;3.70;98.90;3.40;97399.00;;;;4876380;28;93153;-61
2022/03/26 02:03:40;;;;;;;11.82;8.63;;;3.70;98.80;3.40;97395.00;;;;4851734;28;93218;-61
2022/03/26 02:06:06;;;;;;;11.18;7.57;;;3.70;98.70;3.40;97388.00;;;;4876298;28;92131;-61
2022/03/26 02:08:32;;;;;;;11.93;8.57;;;3.80;98.80;3.50;97396.00;;;;4854461;28;92391;-61
2022/03/26 02:10:59;;;;;;;12.68;8.07;;;3.70;98.50;3.50;97374.00;;;;4867213;28;91972;-62
2022/03/26 02:13:25;;;;;;;10.60;7.85;;;3.80;98.50;3.50;97374.00;;;;4854986;29;97001;-62
2022/03/26 02:15:52;;;;;;;12.88;7.95;;;3.80;98.50;3.60;97372.00;;;;4880898;28;92051;-61
2022/03/26 02:18:18;;;;;;;11.57;8.40;;;3.90;98.30;3.60;97363.00;;;;4877445;28;92544;-61
2022/03/26 02:20:45;;;;;;;11.93;7.95;;;3.90;98.20;3.70;97357.00;;;;4881009;28;93700;-61
2022/03/26 02:23:12;;;;;;;12.05;7.97;;;3.90;98.10;3.70;97345.00;;;;4878765;28;93363;-61
2022/03/26 02:25:38;;;;;;;12.50;7.88;;;3.90;98.10;3.70;97350.00;;;;4867252;28;91969;-61
2022/03/26 02:28:04;;;;;;;13.70;7.53;;;4.00;98.00;3.70;97352.00;;;;4865421;28;92035;-61
2022/03/26 02:30:33;;;;;;;10.32;7.63;;;4.00;97.90;3.80;97350.00;;;;4850871;28;93610;-61
2022/03/26 02:32:59;;;;;;;11.10;8.23;;;4.00;97.70;3.80;97343.00;;;;4882931;28;92114;-61
2022/03/26 02:35:26;;;;;;;17.48;7.97;;;4.00;97.70;3.70;97341.00;;;;4872596;28;91930;-61
2022/03/26 02:37:52;;;;;;;12.40;7.82;;;4.00;98.10;3.80;97339.00;;;;4874301;28;91288;-61
2022/03/26 02:40:19;;;;;;;12.07;8.32;;;4.00;97.70;3.80;97323.00;;;;4872167;28;93688;-61
2022/03/26 02:42:45;;;;;;;12.15;8.05;;;4.10;97.60;3.80;97322.00;;;;4872835;28;92622;-61
2022/03/26 02:45:11;;;;;;;12.60;7.88;;;4.10;97.50;3.80;97325.00;;;;4867818;28;93136;-61
2022/03/26 02:47:37;;;;;;;10.38;8.02;;;4.10;97.40;3.90;97313.00;;;;4846821;28;92082;-61
2022/03/26 02:50:04;;;;;;;9.10;7.53;;;4.10;97.30;3.90;97315.00;;;;4872029;28;93018;-61
2022/03/26 02:52:31;;;;;;;11.65;8.02;;;4.20;97.20;3.90;97292.00;;;;4874172;28;92369;-61
2022/03/26 02:54:57;;;;;;;18.80;8.43;;;4.20;97.40;4.00;97300.00;;;;4878313;28;93180;-61
2022/03/26 02:57:23;;;;;;;11.07;7.55;;;4.20;97.20;4.00;97279.00;;;;4873752;28;92119;-60
2022/03/26 02:59:49;;;;;;;12.65;7.90;;;4.20;97.10;4.00;97279.00;;;;4872847;28;92727;-61
2022/03/26 03:02:15;;;;;;;15.68;8.55;;;4.30;97.20;4.00;97271.00;;;;4880321;28;95095;-61
2022/03/26 03:04:42;;;;;;;15.25;7.95;;;4.30;97.30;4.10;97253.00;;;;4876491;28;93248;-61
2022/03/26 03:07:09;;;;;;;9.63;7.53;;;4.30;97.30;4.10;97249.00;;;;4864472;28;93366;-62
2022/03/26 03:09:35;;;;;;;12.88;8.18;;;4.30;97.40;4.10;97247.00;;;;4856939;28;93607;-63
2022/03/26 03:12:01;;;;;;;11.35;7.82;;;4.30;97.50;4.00;97228.00;;;;4873750;28;93239;-63
2022/03/26 03:14:27;;;;;;;11.85;8.65;;;4.30;97.60;4.00;97226.00;;;;4873162;28;92044;-62
2022/03/26 03:16:54;;;;;;;12.02;7.95;;;4.20;97.80;4.00;97215.00;;;;4873387;28;92295;-63
2022/03/26 03:19:20;;;;;;;12.30;7.97;;;4.20;97.70;3.90;97216.00;;;;4860261;28;92485;-61
2022/03/26 03:21:46;;;;;;;14.77;7.97;;;4.20;97.70;4.00;97222.00;;;;4873259;28;93028;-61
2022/03/26 03:24:12;;;;;;;11.90;8.38;;;4.20;97.70;4.00;97204.00;;;;4875140;28;92436;-62
2022/03/26 03:26:39;;;;;;;10.98;7.55;;;4.20;97.70;4.00;97194.00;;;;4879263;28;92404;-61
2022/03/26 03:29:05;;;;;;;11.95;8.05;;;4.20;97.60;4.00;97189.00;;;;4880040;28;93764;-61
2022/03/26 03:31:32;;;;;;;10.68;7.55;;;4.20;97.60;4.00;97171.00;;;;4878168;28;92582;-62
2022/03/26 03:33:58;;;;;;;12.02;8.65;;;4.20;97.60;4.00;97154.00;;;;4877634;28;93444;-61
2022/03/26 03:36:25;;;;;;;13.40;8.43;;;4.20;97.60;3.90;97152.00;;;;4870634;28;92270;-61
2022/03/26 03:38:51;;;;;;;13.55;8.77;;;4.20;97.70;3.90;97148.00;;;;4861378;28;94018;-61
2022/03/26 03:41:17;;;;;;;12.18;8.25;;;4.10;97.70;3.90;97165.00;;;;4867171;28;92425;-61
2022/03/26 03:43:43;;;;;;;14.85;8.40;;;4.10;97.70;3.90;97161.00;;;;4871132;28;92157;-60
2022/03/26 03:46:10;;;;;;;14.88;8.18;;;4.20;97.80;3.90;97155.00;;;;4882991;28;92065;-63
2022/03/26 03:48:36;;;;;;;14.35;8.55;;;4.20;97.80;3.90;97130.00;;;;4866342;28;92795;-61
2022/03/26 03:51:02;;;;;;;12.38;8.38;;;4.20;97.60;4.00;97132.00;;;;4813478;29;92882;-62
2022/03/26 03:53:28;;;;;;;16.60;8.18;;;4.20;97.40;4.00;97135.00;;;;4855356;29;92561;-61
2022/03/26 03:55:55;;;;;;;10.75;8.40;;;4.20;97.40;4.00;97120.00;;;;4859936;29;92081;-61
2022/03/26 03:58:21;;;;;;;12.70;8.10;;;4.20;97.40;4.10;97123.00;;;;4837109;29;93446;-61
2022/03/26 04:00:47;;;;;;;11.98;8.07;;;4.30;97.40;4.00;97125.00;;;;4856025;29;93737;-61
2022/03/26 04:03:15;;;;;;;13.00;8.40;;;4.30;97.50;4.00;97124.00;;;;4846726;29;92117;-61
2022/03/26 04:05:41;;;;;;;11.05;8.23;;;4.20;97.30;4.00;97115.00;;;;4856034;29;92255;-61
2022/03/26 04:08:08;;;;;;;17.50;7.82;;;4.20;97.30;4.00;97113.00;;;;4830219;29;93816;-62
2022/03/26 04:10:34;;;;;;;14.05;8.02;;;4.20;97.40;4.00;97118.00;;;;4859347;29;94151;-61
2022/03/26 04:13:00;;;;;;;17.33;8.85;;;4.30;97.40;4.00;97110.00;;;;4854612;28;92130;-61
2022/03/26 04:15:27;;;;;;;14.48;8.88;;;4.30;97.30;4.10;97099.00;;;;4855944;29;91335;-61
2022/03/26 04:17:54;;;;;;;14.00;7.95;;;4.30;97.40;4.00;97091.00;;;;4856656;29;93661;-62
2022/03/26 04:20:21;;;;;;;13.65;7.78;;;4.30;97.40;4.10;97100.00;;;;4862271;29;92497;-62
2022/03/26 04:22:47;;;;;;;13.93;8.63;;;4.30;97.10;4.10;97087.00;;;;4845510;29;92868;-61
2022/03/26 04:25:13;;;;;;;14.02;8.15;;;4.30;97.10;4.10;97078.00;;;;4840551;29;92586;-62
2022/03/26 04:27:44;;;;;;;19.52;8.73;;;4.30;97.20;4.20;97078.00;;;;4852510;29;92007;-62
2022/03/26 04:30:13;;;;;;;11.37;8.70;;;4.40;97.10;4.20;97059.00;;;;4852812;29;93499;-61
2022/03/26 04:32:39;;;;;;;13.35;7.80;;;4.40;97.00;4.30;97058.00;;;;4840630;29;92120;-63
2022/03/26 04:35:06;;;;;;;14.43;8.25;;;4.50;96.90;4.30;97043.00;;;;4852783;29;92976;-63
2022/03/26 04:37:34;;;;;;;13.77;8.32;;;4.50;96.70;4.30;97044.00;;;;4853902;29;94251;-61
2022/03/26 04:40:01;;;;;;;12.77;7.93;;;4.50;96.80;4.30;97034.00;;;;4851982;29;92679;-62
2022/03/26 04:42:27;;;;;;;13.27;7.78;;;4.50;96.90;4.30;97014.00;;;;4835584;29;92113;-61
2022/03/26 04:44:54;;;;;;;12.80;7.55;;;4.50;96.80;4.30;97023.00;;;;4853946;29;92097;-62
2022/03/26 04:47:20;;;;;;;13.50;8.15;;;4.50;96.80;4.40;97006.00;;;;4826565;29;93697;-62
2022/03/26 04:49:46;;;;;;;18.92;8.48;;;4.60;96.70;4.50;97004.00;;;;4829165;29;94534;-61
2022/03/26 04:52:13;;;;;;;13.48;8.15;;;4.70;96.90;4.50;96976.00;;;;4846737;29;92260;-61
2022/03/26 04:54:39;;;;;;;14.60;8.32;;;4.70;96.70;4.50;96969.00;;;;4841805;29;92116;-61
2022/03/26 04:57:06;;;;;;;13.23;8.02;;;4.70;96.50;4.60;96958.00;;;;4844989;29;92669;-61
2022/03/26 04:59:32;;;;;;;11.95;8.15;;;4.80;96.30;4.60;96961.00;;;;4847255;29;92329;-62
2022/03/26 05:01:58;;;;;;;14.98;8.10;;;4.80;96.50;4.60;96949.00;;;;4852301;29;92031;-62
2022/03/26 05:04:24;;;;;;;15.80;8.52;;;4.90;96.20;4.70;96938.00;;;;4840181;29;91498;-62
2022/03/26 05:06:51;;;;;;;12.68;8.15;;;4.90;96.30;4.70;96930.00;;;;4836041;29;93528;-62
2022/03/26 05:09:17;;;;;;;15.05;7.88;;;4.90;96.20;4.70;96935.00;;;;4856307;29;93255;-62
2022/03/26 05:11:43;;;;;;;11.63;7.57;;;4.90;96.20;4.80;96937.00;;;;4857175;29;93059;-61
2022/03/26 05:14:09;;;;;;;13.07;8.10;;;5.00;96.30;4.90;96911.00;;;;4855561;29;92452;-62
2022/03/26 05:16:35;;;;;;;14.05;8.15;;;5.10;96.30;4.90;96911.00;;;;4834449;29;92664;-62
2022/03/26 05:19:03;;;;;;;12.50;7.57;;;5.10;96.20;4.90;96910.00;;;;4837258;29;93778;-61
2022/03/26 05:21:29;;;;;;;11.82;7.55;;;5.10;96.20;5.00;96898.00;;;;4852025;29;92364;-62
2022/03/26 05:23:55;;;;;;;14.60;8.60;;;5.10;96.20;5.00;96887.00;;;;4853241;29;92150;-61
2022/03/26 05:26:22;;;;;;;15.95;8.38;;;5.20;96.10;5.00;96882.00;;;;4851704;29;92857;-62
2022/03/26 05:28:50;;;;;;;12.80;8.30;;;5.20;96.10;5.10;96885.00;;;;4849258;29;92883;-63
2022/03/26 05:31:17;;;;;;;19.45;9.07;;;5.20;96.20;5.10;96877.00;;;;4840521;29;92366;-63
2022/03/26 05:33:43;;;;;;;15.73;8.73;;;5.30;96.20;5.10;96873.00;;;;4850111;29;92190;-64
2022/03/26 05:36:09;;;;;;;15.68;8.48;;;5.30;96.20;5.10;96871.00;;;;4854746;29;93531;-63
2022/03/26 05:38:36;;;;;;;13.77;8.23;;;5.30;96.20;5.20;96867.00;;;;4855677;29;94377;-63
2022/03/26 05:41:04;;;;;;;18.13;8.07;;;5.30;96.10;5.30;96879.00;;;;4850598;29;92341;-63
2022/03/26 05:43:30;;;;;;;14.23;8.90;;;5.40;96.10;5.30;96881.00;;;;4856804;29;92273;-63
2022/03/26 05:45:56;;;;;;;16.27;8.10;;;5.50;96.10;5.30;96865.00;;;;4855998;28;92549;-61
2022/03/26 05:48:23;;;;;;;18.55;8.55;;;5.50;95.90;5.40;96865.00;;;;4854342;28;92683;-62
2022/03/26 05:50:49;;;;;;;13.77;8.60;;;5.50;96.00;5.40;96846.00;;;;4855725;29;94425;-62
2022/03/26 05:53:15;;;;;;;15.27;9.27;;;5.60;95.70;5.40;96845.00;;;;4852918;29;92081;-62
2022/03/26 05:55:41;;;;;;;15.07;8.48;;;5.60;95.80;5.50;96839.00;;;;4857758;29;93049;-62
2022/03/26 05:58:07;;;;;;;16.48;8.65;;;5.60;95.60;5.50;96829.00;;;;4834147;29;93404;-62
2022/03/26 06:00:34;;;;;;;14.18;8.10;;;5.60;95.60;5.50;96825.00;;;;4853430;29;93082;-62
2022/03/26 06:03:00;;;;;;;16.17;8.93;;;5.70;95.70;5.60;96811.00;;;;4850188;29;92243;-62
2022/03/26 06:05:26;;;;;;;16.17;8.30;;;5.70;95.70;5.60;96806.00;;;;4860910;29;93688;-62
2022/03/26 06:07:52;;;;;;;14.35;7.93;;;5.70;95.60;5.60;96793.00;;;;4843239;29;93683;-64
2022/03/26 06:10:18;;;;;;;18.63;8.10;;;5.70;95.60;5.60;96787.00;;;;4854496;29;92030;-62
2022/03/26 06:12:45;;;;;;;18.05;9.23;;;5.80;95.70;5.60;96787.00;;;;4853016;29;92736;-62
2022/03/26 06:15:12;;;;;;;13.82;8.38;;;5.80;95.80;5.70;96787.00;;;;4854110;29;92794;-61
2022/03/26 06:17:38;;;;;;;14.57;8.57;;;5.80;95.70;5.80;96772.00;;;;4853936;29;92429;-62
2022/03/26 06:20:05;;;;;;;16.83;8.38;;;5.80;95.50;5.80;96755.00;;;;4835495;29;92712;-62
2022/03/26 06:22:31;;;;;;;12.35;8.60;;;5.90;95.40;5.80;96748.00;;;;4857113;29;92079;-62
2022/03/26 06:24:57;;;;;;;16.70;8.27;;;5.90;95.40;5.80;96743.00;;;;4840232;29;93616;-63
2022/03/26 06:27:23;;;;;;;12.98;8.02;;;5.90;95.40;5.80;96739.00;;;;4854759;28;94889;-62
2022/03/26 06:29:49;;;;;;;17.45;8.82;;;5.90;95.50;5.80;96735.00;;;;4823554;29;93026;-64
2022/03/26 06:32:15;;;;;;;18.25;9.35;;;5.90;95.40;5.80;96718.00;;;;4841095;29;92112;-62
2022/03/26 06:34:42;;;;;;;14.73;8.23;;;6.00;95.40;5.90;96714.00;;;;4837567;29;92750;-62
2022/03/26 06:37:08;;;;;;;18.15;9.63;;;6.00;95.30;5.90;96708.00;;;;4853954;29;93542;-62
2022/03/26 06:39:35;;;;;;;23.63;8.40;;;6.00;95.20;5.90;96701.00;;;;4856776;29;92173;-63
2022/03/26 06:42:01;;;;;;;14.48;8.98;;;6.00;95.30;5.90;96709.00;;;;4846806;29;91362;-64
2022/03/26 06:44:27;;;;;;;16.30;8.95;;;6.00;95.40;5.90;96703.00;;;;4836378;29;92622;-63
2022/03/26 06:46:53;;;;;;;14.00;8.70;;;6.00;95.40;5.80;96683.00;;;;4854199;29;92519;-62
2022/03/26 06:49:19;;;;;;;16.35;8.90;;;5.90;95.40;5.80;96686.00;;;;4867878;28;93495;-63
2022/03/26 06:51:46;;;;;;;20.17;9.25;;;5.90;95.50;5.80;96682.00;;;;4859551;28;92559;-61
2022/03/26 06:54:13;;;;;;;15.52;8.57;;;5.90;95.60;5.80;96677.00;;;;4854435;28;92455;-64
2022/03/26 06:56:39;;;;;;;15.13;8.60;;;5.90;95.60;5.80;96664.00;;;;4873870;28;92449;-65
2022/03/26 06:59:06;;;;;;;16.42;8.18;;;5.90;95.50;5.90;96659.00;;;;4856673;28;92780;-64
2022/03/26 07:01:32;;;;;;;14.65;8.70;;;6.00;95.40;5.90;96649.00;;;;4856060;28;92285;-66
2022/03/26 07:03:58;;;;;;;17.13;8.35;;;6.00;95.30;5.90;96631.00;;;;4877869;28;92136;-64
2022/03/26 07:06:25;;;;;;;14.52;8.35;;;6.00;95.20;5.90;96623.00;;;;4876473;28;92420;-65
2022/03/26 07:08:51;;;;;;;15.05;9.30;;;6.00;95.30;5.90;96616.00;;;;4848452;28;92192;-64
2022/03/26 07:11:17;;;;;;;16.40;8.63;;;6.00;95.40;5.80;96606.00;;;;4881915;28;92077;-65
2022/03/26 07:13:44;;;;;;;18.45;8.77;;;6.00;95.50;5.90;96596.00;;;;4870615;28;93618;-64
2022/03/26 07:16:10;;;;;;;12.52;8.65;;;6.00;95.50;5.90;96588.00;;;;4860090;28;94386;-64
2022/03/26 07:18:36;;;;;;;14.85;8.50;;;6.00;95.30;6.00;96587.00;;;;4878567;28;92261;-65
2022/03/26 07:21:02;;;;;;;14.98;8.60;;;6.10;95.20;6.00;96576.00;;;;4865517;28;92455;-65
2022/03/26 07:23:29;;;;;;;16.98;8.45;;;6.10;95.10;6.00;96577.00;;;;4875835;28;92942;-64
2022/03/26 07:26:04;;;;;;;14.48;9.15;;;6.10;95.10;6.10;96571.00;;;;4850181;29;92360;-65
2022/03/26 07:28:33;;;;;;;16.92;8.68;;;6.10;95.10;6.00;96561.00;;;;4859338;28;92413;-69
2022/03/26 07:30:59;;;;;;;15.23;8.85;;;6.20;95.10;6.00;96546.00;;;;4862297;28;91341;-70
2022/03/26 07:33:27;;;;;;;13.02;8.10;;;6.10;95.10;6.10;96551.00;;;;4881924;28;92668;-65
2022/03/26 07:35:53;;;;;;;18.05;8.82;;;6.20;95.00;6.10;96528.00;;;;4870403;28;92437;-66
2022/03/26 07:38:19;;;;;;;14.57;8.30;;;6.20;95.10;6.00;96544.00;;;;4856072;28;93237;-65
2022/03/26 07:40:45;;;;;;;13.05;8.27;;;6.20;95.10;6.00;96526.00;;;;4880721;28;92588;-63
2022/03/26 07:43:11;;;;;;;16.33;9.00;;;6.10;95.20;5.90;96508.00;;;;4873811;28;93730;-62
2022/03/26 07:45:38;;;;;;;17.73;9.88;;;6.10;95.30;5.90;96520.00;;;;4861435;28;94832;-67
2022/03/26 07:48:05;;;;;;;13.60;9.07;;;6.00;95.30;5.90;96514.00;;;;4880197;28;92550;-66
2022/03/26 07:50:31;;;;;;;18.65;8.45;;;6.00;95.40;5.90;96496.00;;;;4875218;28;92495;-66
2022/03/26 07:52:57;;;;;;;12.90;8.88;;;6.00;95.50;5.90;96503.00;;;;4878467;28;92785;-68
2022/03/26 07:55:24;;;;;;;16.52;9.23;;;6.00;95.60;5.90;96490.00;;;;4864509;28;92351;-65
2022/03/26 07:57:51;;;;;;;16.45;9.60;;;6.00;96.40;5.90;96491.00;;;;4876671;28;92393;-66
2022/03/26 08:00:17;;;;;;;13.02;8.43;;;6.00;96.40;5.80;96477.00;;;;4870915;28;92233;-66
2022/03/26 08:02:43;;;;;;;18.33;8.65;;;5.80;96.60;5.70;96470.00;;;;4872873;28;93447;-66
2022/03/26 08:05:10;;;;;;;18.85;9.82;;;5.80;97.20;5.60;96460.00;;;;4878000;28;93281;-65
2022/03/26 08:07:36;;;;;;;19.27;9.98;;;5.70;97.70;5.50;96473.00;;;;4875059;28;92353;-66
2022/03/26 08:10:02;;;;;;;16.80;10.00;;;5.60;98.20;5.40;96459.00;;;;4870774;28;92029;-67
2022/03/26 08:12:29;;;;;;;15.98;10.02;;;5.50;98.80;5.30;96441.00;;;;4853198;28;93952;-67
2022/03/26 08:14:55;;;;;;;18.88;10.13;;;5.50;99.30;5.30;96429.00;;;;4876404;28;94246;-66
2022/03/26 08:17:22;;;;;;;16.38;9.75;;;5.50;99.80;5.30;96433.00;;;;4867582;28;92107;-67
2022/03/26 08:19:49;;;;;;;17.63;11.07;;;5.40;99.70;5.20;96416.00;;;;4879502;28;92326;-66
2022/03/26 08:22:15;;;;;;;20.10;12.13;;;5.30;99.90;5.20;96410.00;;;;4874633;28;94047;-64
2022/03/26 08:24:41;;;;;;;18.50;11.10;;;5.30;99.90;5.20;96407.00;;;;4875198;28;92317;-65
2022/03/26 08:27:07;;;;;;;19.42;11.20;;;5.30;99.90;5.00;96401.00;;;;4862024;28;93545;-65
2022/03/26 08:29:34;;;;;;;16.15;10.85;;;5.20;99.90;4.90;96390.00;;;;4876529;28;92104;-65
2022/03/26 08:32:04;;;;;;;13.88;10.25;;;5.00;99.90;4.90;96381.00;;;;4876621;28;93684;-65
2022/03/26 08:34:30;;;;;;;15.40;11.63;;;5.10;99.90;4.90;96381.00;;;;4870230;28;93591;-65
2022/03/26 08:36:57;;;;;;;20.98;11.65;;;5.10;99.90;4.90;96365.00;;;;4876409;28;94171;-65
2022/03/26 08:39:23;;;;;;;17.25;10.77;;;5.10;99.90;5.00;96369.00;;;;4878055;28;92807;-65
2022/03/26 08:41:49;;;;;;;16.30;11.13;;;5.10;99.90;5.00;96352.00;;;;4876803;28;93471;-65
2022/03/26 08:44:16;;;;;;;19.10;11.10;;;5.10;99.90;5.10;96339.00;;;;4859122;28;95515;-65
2022/03/26 08:46:42;;;;;;;14.23;10.93;;;5.20;99.90;5.10;96328.00;;;;4880463;28;92000;-65
2022/03/26 08:49:08;;;;;;;18.33;11.10;;;5.30;99.90;5.10;96326.00;;;;4872727;28;92053;-66
2022/03/26 08:51:34;;;;;;;20.95;10.82;;;5.20;99.90;5.10;96353.00;;;;4860605;29;93908;-66
2022/03/26 08:54:00;;;;;;;16.27;11.30;;;5.20;99.90;5.00;96340.00;;;;4851964;29;94085;-66
2022/03/26 08:56:26;;;;;;;15.27;10.40;;;5.20;99.90;5.10;96352.00;;;;4854620;29;92377;-66
2022/03/26 08:58:53;;;;;;;19.73;11.70;;;5.10;99.90;5.00;96343.00;;;;4858173;29;92505;-66
2022/03/26 09:01:19;;;;;;;21.50;13.13;;;5.20;99.90;5.00;96327.00;;;;4859292;29;93743;-66
2022/03/26 09:03:46;;;;;;;19.75;12.23;;;5.20;99.90;4.90;96340.00;;;;4859137;29;94022;-66
2022/03/26 09:06:12;;;;;;;20.77;11.98;;;5.00;99.90;4.90;96345.00;;;;4858843;29;92642;-67
2022/03/26 09:08:39;;;;;;;17.58;11.98;;;4.90;99.90;4.80;96329.00;;;;4841249;29;91436;-62
2022/03/26 09:11:05;;;;;;;17.42;12.48;;;4.90;99.90;4.70;96327.00;;;;4862946;29;93515;-61
2022/03/26 09:13:33;;;;;;;23.30;13.80;;;4.80;99.90;4.60;96331.00;;;;4846247;29;94374;-59
2022/03/26 09:15:59;;;;;;;16.90;13.55;;;4.80;99.90;4.50;96320.00;;;;4828883;29;93115;-60
2022/03/26 09:18:26;;;;;;;21.77;13.60;;;4.60;99.90;4.40;96312.00;;;;4855630;29;92685;-61
2022/03/26 09:20:53;;;;;;;19.35;13.10;;;4.60;99.90;4.30;96314.00;;;;4862476;29;92859;-61
2022/03/26 09:23:20;;;;;;;20.55;13.60;;;4.40;99.90;4.20;96312.00;;;;4861924;29;92629;-61
2022/03/26 09:25:46;;;;;;;21.75;14.55;;;4.40;99.90;4.30;96312.00;;;;4848954;29;92268;-61
2022/03/26 09:28:13;;;;;;;20.65;14.05;;;4.40;99.90;4.20;96299.00;;;;4847458;29;92157;-61
2022/03/26 09:31:06;;;;;;;19.05;13.40;;;4.30;99.90;4.10;96308.00;;;;4863894;29;92846;-63
2022/03/26 09:33:32;;;;;;;23.05;15.90;;;4.20;99.90;4.00;96301.00;;;;4859815;29;92277;-62
2022/03/26 09:35:58;;;;;;;22.60;15.80;;;4.20;99.90;3.90;96303.00;;;;4856332;29;92418;-61
2022/03/26 09:38:24;;;;;;;24.05;15.57;;;4.10;99.90;3.90;96294.00;;;;4862635;29;92191;-63
2022/03/26 09:40:50;;;;;;;25.13;16.92;;;4.10;99.90;3.90;96304.00;;;;4863538;29;94568;-63
2022/03/26 09:43:18;;;;;;;24.75;16.70;;;4.00;99.90;3.80;96284.00;;;;4830658;29;93684;-63
2022/03/26 09:45:44;;;;;;;24.20;17.70;;;4.00;99.90;3.80;96297.00;;;;4864410;29;92143;-63
2022/03/26 09:48:10;;;;;;;22.75;17.83;;;4.00;99.90;3.70;96286.00;;;;4866792;28;92209;-62
2022/03/26 09:50:43;;;;;;;27.75;18.25;;;3.90;99.90;3.70;96288.00;;;;4868682;28;94081;-62
2022/03/26 09:53:12;;;;;;;24.00;17.80;;;3.90;99.90;3.70;96291.00;;;;4875616;28;92939;-62
2022/03/26 09:55:40;;;;;;;25.30;17.55;;;3.90;99.90;3.70;96289.00;;;;4873960;28;92234;-62
2022/03/26 09:58:06;;;;;;;25.15;18.02;;;3.90;99.90;3.70;96292.00;;;;4842601;28;91360;-62
2022/03/26 10:00:33;;;;;;;21.92;17.95;;;3.90;99.90;3.70;96286.00;;;;4852772;29;95843;-62
2022/03/26 10:02:59;;;;;;;21.23;17.77;;;3.90;99.90;3.70;96266.00;;;;4872262;28;93989;-62
2022/03/26 10:05:34;;;;;;;23.27;17.58;;;3.90;99.90;3.70;96272.00;;;;4880106;28;93288;-63
2022/03/26 10:08:22;;;;;;;25.23;20.25;;;3.90;99.90;3.80;96275.00;;;;4873480;28;92400;-63
2022/03/26 10:10:50;;;;;;;22.95;18.40;;;4.00;99.90;3.80;96264.00;;;;4861776;28;93774;-63
2022/03/26 10:13:43;;;;;;;24.67;17.83;;;4.00;99.90;3.80;96257.00;;;;4876078;28;94410;-63
2022/03/26 10:16:12;;;;;;;25.50;18.02;;;4.00;99.90;3.80;96258.00;;;;4870231;28;92483;-64
2022/03/26 10:18:41;;;;;;;24.02;18.27;;;4.00;99.90;3.80;96258.00;;;;4877948;28;92421;-63
2022/03/26 10:21:14;;;;;;;21.27;18.42;;;4.00;99.90;3.90;96272.00;;;;4880580;28;92670;-62
2022/03/26 10:23:52;;;;;;;27.15;18.90;;;4.10;99.90;4.00;96273.00;;;;4864149;28;93487;-63
2022/03/26 10:26:21;;;;;;;27.52;19.70;;;4.20;99.90;4.00;96260.00;;;;4881847;28;92089;-64
2022/03/26 10:28:56;;;;;;;24.25;19.42;;;4.20;99.90;4.00;96249.00;;;;4878279;28;92503;-64
2022/03/26 10:34:19;;;;;;;23.65;18.85;;;4.20;99.90;4.10;96253.00;;;;4869498;28;93279;-63
2022/03/26 10:36:57;;;;;;;23.55;18.90;;;4.20;99.90;4.20;96243.00;;;;4876339;28;92860;-63
2022/03/26 10:39:29;;;;;;;26.25;19.80;;;4.30;99.90;4.10;96255.00;;;;4875196;28;92302;-64
2022/03/26 10:41:56;;;;;;;;;;;4.30;99.90;4.10;96246.00;;;;4878444;28;93287;-63
2022/03/26 10:44:29;;;;;;;25.75;19.52;;;4.30;99.90;4.10;96237.00;;;;4881687;28;92036;-64
2022/03/26 10:47:00;;;;;;;23.55;19.95;;;4.20;99.90;4.10;96215.00;;;;4882180;28;92290;-62
2022/03/26 10:49:29;;;;;;;21.13;18.57;;;4.30;99.90;4.30;96202.00;;;;4874888;28;92378;-63
2022/03/26 10:52:05;;;;;;;20.88;17.80;;;4.50;99.90;4.50;96191.00;;;;4876310;28;92536;-61
2022/03/26 10:54:33;;;;;;;25.05;17.38;;;4.60;99.90;4.60;96196.00;;;;4877471;28;93495;-62
2022/03/26 10:57:01;;;;;;;25.77;17.60;;;4.80;99.90;4.60;96210.00;;;;4880035;28;93214;-61
2022/03/26 10:59:29;;;;;;;22.90;16.52;;;4.80;99.90;4.60;96197.00;;;;4875781;28;92152;-61
2022/03/26 11:01:56;;;;;;;20.42;16.80;;;4.70;99.90;4.60;96189.00;;;;4861404;28;92751;-61